createdAt,value
2023-05-13T00:01:59.891Z,1.92
2023-05-13T00:04:26.988Z,2.10
2023-05-13T00:06:53.932Z,2.00
2023-05-13T00:09:20.843Z,1.60
2023-05-13T00:11:48.030Z,1.80
2023-05-13T00:14:14.996Z,2.25
2023-05-13T00:16:43.210Z,1.90
2023-05-13T00:19:10.662Z,2.10
2023-05-13T00:21:37.656Z,1.90
2023-05-13T00:24:05.474Z,2.10
2023-05-13T00:26:32.338Z,1.90
2023-05-13T00:28:59.274Z,1.83
2023-05-13T00:31:26.330Z,2.10
2023-05-13T00:33:53.265Z,2.38
2023-05-13T00:36:20.173Z,2.00
2023-05-13T00:38:47.234Z,2.30
2023-05-13T00:41:14.265Z,2.40
2023-05-13T00:43:41.241Z,1.90
2023-05-13T00:46:08.275Z,2.00
2023-05-13T00:48:35.392Z,2.10
2023-05-13T00:51:02.423Z,2.00
2023-05-13T00:53:32.313Z,2.10
2023-05-13T00:55:59.627Z,2.00
2023-05-13T00:58:26.513Z,1.90
2023-05-13T01:00:53.389Z,2.10
2023-05-13T01:03:33.155Z,1.70
2023-05-13T01:06:16.753Z,2.20
2023-05-13T01:09:00.902Z,2.00
2023-05-13T01:11:30.474Z,1.95
2023-05-13T01:14:10.550Z,2.13
2023-05-13T01:16:47.454Z,1.80
2023-05-13T01:19:42.074Z,1.90
2023-05-13T01:22:09.087Z,2.00
2023-05-13T01:24:36.314Z,1.90
2023-05-13T01:27:03.569Z,1.87
2023-05-13T01:29:30.863Z,2.05
2023-05-13T01:31:58.767Z,1.75
2023-05-13T01:34:27.489Z,2.30
2023-05-13T01:36:54.793Z,2.10
2023-05-13T01:39:22.733Z,1.90
2023-05-13T01:41:49.794Z,2.30
2023-05-13T01:44:16.844Z,2.10
2023-05-13T01:46:44.714Z,2.50
2023-05-13T01:49:11.711Z,2.30
2023-05-13T01:51:38.889Z,2.20
2023-05-13T01:54:05.872Z,2.05
2023-05-13T01:56:32.980Z,2.00
2023-05-13T01:59:00.028Z,2.40
2023-05-13T02:01:27.155Z,2.10
2023-05-13T02:03:54.212Z,2.10
2023-05-13T02:06:21.304Z,2.50
2023-05-13T02:08:48.248Z,2.30
2023-05-13T02:11:15.585Z,2.10
2023-05-13T02:13:42.688Z,2.10
2023-05-13T02:16:11.388Z,2.55
2023-05-13T02:18:38.383Z,2.00
2023-05-13T02:21:05.695Z,2.00
2023-05-13T02:23:32.736Z,2.20
2023-05-13T02:25:59.795Z,2.25
2023-05-13T02:28:26.854Z,2.30
2023-05-13T02:30:53.913Z,2.20
2023-05-13T02:33:20.863Z,2.38
2023-05-13T02:35:47.892Z,2.38
2023-05-13T02:38:14.869Z,2.10
2023-05-13T02:40:42.352Z,2.20
2023-05-13T02:43:09.284Z,2.50
2023-05-13T02:45:36.431Z,2.20
2023-05-13T02:48:03.504Z,2.40
2023-05-13T02:50:30.547Z,2.05
2023-05-13T02:52:57.602Z,2.10
2023-05-13T02:55:24.986Z,2.00
2023-05-13T02:57:52.033Z,2.30
2023-05-13T03:00:19.599Z,2.33
2023-05-13T03:02:46.902Z,2.53
2023-05-13T03:05:13.961Z,2.30
2023-05-13T03:07:41.058Z,2.40
2023-05-13T03:10:08.633Z,2.40
2023-05-13T03:12:36.223Z,2.20
2023-05-13T03:15:04.108Z,2.47
2023-05-13T03:17:32.175Z,2.30
2023-05-13T03:19:59.296Z,2.40
2023-05-13T03:22:26.576Z,2.10
2023-05-13T03:24:53.616Z,2.10
2023-05-13T03:27:21.057Z,2.20
2023-05-13T03:29:48.266Z,2.30
2023-05-13T03:32:15.271Z,2.22
2023-05-13T03:34:42.195Z,2.35
2023-05-13T03:37:09.934Z,2.40
2023-05-13T03:39:37.180Z,2.28
2023-05-13T03:42:04.434Z,2.17
2023-05-13T03:44:31.424Z,2.40
2023-05-13T03:46:58.393Z,2.20
2023-05-13T03:49:25.590Z,2.28
2023-05-13T03:51:52.522Z,2.00
2023-05-13T03:54:19.778Z,2.20
2023-05-13T03:56:46.850Z,2.38
2023-05-13T03:59:13.844Z,2.30
2023-05-13T04:01:41.099Z,2.30
2023-05-13T04:04:08.092Z,2.40
2023-05-13T04:06:35.132Z,2.40
2023-05-13T04:09:04.678Z,2.47
2023-05-13T04:11:32.345Z,2.10
2023-05-13T04:13:59.300Z,2.30
2023-05-13T04:16:26.400Z,3.00
2023-05-13T04:18:53.472Z,3.30
2023-05-13T04:21:20.692Z,2.75
2023-05-13T04:23:48.018Z,2.70
2023-05-13T04:26:15.184Z,2.53
2023-05-13T04:28:42.234Z,2.53
2023-05-13T04:31:09.252Z,2.58
2023-05-13T04:33:36.185Z,2.35
2023-05-13T04:36:03.599Z,2.42
2023-05-13T04:38:31.772Z,2.80
2023-05-13T04:40:58.826Z,2.60
2023-05-13T04:43:25.873Z,2.40
2023-05-13T04:45:52.971Z,2.50
2023-05-13T04:48:19.945Z,2.40
2023-05-13T04:50:47.750Z,2.40
2023-05-13T04:53:15.390Z,2.60
2023-05-13T04:55:42.472Z,2.50
2023-05-13T04:58:09.477Z,2.20
2023-05-13T05:00:36.557Z,2.60
2023-05-13T05:03:03.556Z,2.40
2023-05-13T05:05:30.724Z,2.80
2023-05-13T05:07:57.669Z,2.60
2023-05-13T05:10:24.746Z,2.55
2023-05-13T05:12:51.706Z,2.80
2023-05-13T05:15:18.907Z,2.60
2023-05-13T05:17:46.107Z,2.60
2023-05-13T05:20:13.690Z,2.60
2023-05-13T05:22:42.310Z,2.50
2023-05-13T05:25:10.861Z,2.67
2023-05-13T05:27:37.947Z,3.20
2023-05-13T05:30:05.605Z,3.20
2023-05-13T05:32:33.941Z,3.20
2023-05-13T05:35:02.350Z,3.10
2023-05-13T05:37:30.407Z,3.50
2023-05-13T05:39:57.501Z,3.40
2023-05-13T05:42:24.544Z,3.20
2023-05-13T05:44:51.532Z,3.50
2023-05-13T05:47:18.487Z,3.67
2023-05-13T05:49:46.423Z,3.88
2023-05-13T05:52:13.527Z,3.83
2023-05-13T05:54:40.636Z,4.00
2023-05-13T05:57:07.702Z,4.03
2023-05-13T05:59:34.726Z,3.67
2023-05-13T06:02:01.724Z,3.30
2023-05-13T06:04:28.979Z,3.80
2023-05-13T06:06:56.072Z,3.75
2023-05-13T06:09:23.297Z,3.38
2023-05-13T06:11:50.456Z,3.50
2023-05-13T06:14:17.809Z,3.30
2023-05-13T06:16:44.952Z,3.30
2023-05-13T06:19:12.058Z,3.50
2023-05-13T06:21:39.246Z,3.95
2023-05-13T06:24:06.681Z,3.95
2023-05-13T06:26:33.698Z,3.97
2023-05-13T06:29:00.751Z,4.40
2023-05-13T06:31:27.804Z,3.75
2023-05-13T06:33:54.922Z,4.20
2023-05-13T06:36:21.873Z,3.90
2023-05-13T06:38:48.937Z,3.50
2023-05-13T06:41:16.276Z,3.60
2023-05-13T06:43:46.103Z,3.03
2023-05-13T06:46:13.124Z,3.50
2023-05-13T06:48:40.317Z,3.30
2023-05-13T06:51:07.322Z,3.50
2023-05-13T06:53:34.373Z,3.20
2023-05-13T06:56:01.305Z,3.20
2023-05-13T06:58:28.405Z,3.47
2023-05-13T07:00:55.556Z,3.30
2023-05-13T07:03:23.112Z,3.40
2023-05-13T07:05:50.140Z,3.40
2023-05-13T07:08:18.166Z,3.30
2023-05-13T07:10:45.212Z,3.10
2023-05-13T07:13:12.594Z,3.20
2023-05-13T07:15:39.776Z,3.33
2023-05-13T07:18:07.170Z,3.20
2023-05-13T07:20:34.255Z,2.80
2023-05-13T07:23:01.268Z,2.90
2023-05-13T07:25:28.521Z,3.00
2023-05-13T07:27:55.625Z,3.20
2023-05-13T07:30:23.177Z,2.97
2023-05-13T07:32:51.993Z,3.00
2023-05-13T07:35:21.278Z,2.92
2023-05-13T07:37:48.537Z,2.60
2023-05-13T07:40:15.848Z,2.60
2023-05-13T07:42:42.889Z,3.30
2023-05-13T07:45:10.467Z,2.95
2023-05-13T07:47:37.529Z,3.20
2023-05-13T07:50:05.018Z,3.50
2023-05-13T07:52:32.769Z,3.80
2023-05-13T07:54:59.908Z,3.22
2023-05-13T07:57:27.016Z,3.50
2023-05-13T07:59:54.226Z,3.40
2023-05-13T08:02:21.692Z,3.40
2023-05-13T08:04:48.818Z,3.95
2023-05-13T08:07:16.018Z,3.60
2023-05-13T08:09:43.145Z,3.50
2023-05-13T08:12:10.257Z,3.38
2023-05-13T08:14:37.274Z,2.95
2023-05-13T08:17:06.682Z,2.92
2023-05-13T08:19:33.778Z,2.90
2023-05-13T08:22:01.129Z,2.55
2023-05-13T08:24:28.375Z,2.50
2023-05-13T08:26:55.380Z,2.60
2023-05-13T08:29:22.449Z,2.65
2023-05-13T08:31:51.125Z,3.20
2023-05-13T08:34:18.404Z,2.60
2023-05-13T08:36:45.577Z,2.70
2023-05-13T08:39:13.387Z,2.30
2023-05-13T08:41:42.163Z,2.30
2023-05-13T08:44:12.453Z,2.80
2023-05-13T08:46:44.824Z,2.40
2023-05-13T08:49:12.401Z,2.60
2023-05-13T08:51:41.092Z,2.67
2023-05-13T08:54:10.885Z,2.60
2023-05-13T08:56:38.075Z,2.70
2023-05-13T08:59:05.085Z,2.50
2023-05-13T09:01:32.312Z,2.60
2023-05-13T09:04:02.425Z,2.45
2023-05-13T09:06:29.763Z,2.20
2023-05-13T09:08:57.487Z,2.35
2023-05-13T09:11:25.170Z,2.55
2023-05-13T09:14:03.686Z,2.50
2023-05-13T09:16:32.778Z,2.25
2023-05-13T09:19:03.616Z,2.17
2023-05-13T09:21:34.200Z,2.60
2023-05-13T09:24:18.672Z,2.40
2023-05-13T09:26:46.479Z,2.20
2023-05-13T09:29:25.226Z,2.05
2023-05-13T09:31:55.113Z,2.10
2023-05-13T09:34:33.396Z,2.00
2023-05-13T09:37:08.157Z,2.00
2023-05-13T09:39:40.093Z,1.92
2023-05-13T09:42:18.686Z,1.88
2023-05-13T09:44:46.838Z,2.40
2023-05-13T09:47:14.884Z,1.80
2023-05-13T09:49:44.602Z,1.90
2023-05-13T09:52:12.101Z,1.90
2023-05-13T09:54:39.287Z,2.00
2023-05-13T09:57:06.736Z,1.70
2023-05-13T09:59:34.574Z,1.90
2023-05-13T10:02:05.763Z,1.50
2023-05-13T10:04:33.564Z,1.30
2023-05-13T10:07:03.461Z,1.42
2023-05-13T10:09:37.941Z,1.50
2023-05-13T10:12:07.898Z,1.30
2023-05-13T10:14:37.274Z,1.30
2023-05-13T10:17:05.551Z,1.20
2023-05-13T10:19:32.889Z,1.42
2023-05-13T10:22:00.518Z,1.20
2023-05-13T10:24:29.085Z,1.30
2023-05-13T10:26:58.078Z,1.35
2023-05-13T10:29:26.599Z,1.40
2023-05-13T10:31:54.631Z,1.33
2023-05-13T10:34:23.043Z,1.30
2023-05-13T10:37:25.588Z,1.40
2023-05-13T10:40:10.416Z,1.50
2023-05-13T10:42:38.044Z,1.50
2023-05-13T10:45:05.945Z,1.50
2023-05-13T10:47:34.038Z,1.70
2023-05-13T10:50:05.995Z,1.50
2023-05-13T10:52:46.426Z,1.65
2023-05-13T10:55:19.740Z,1.70
2023-05-13T10:58:12.421Z,1.80
2023-05-13T11:00:41.659Z,1.77
2023-05-13T11:03:30.238Z,1.50
2023-05-13T11:06:17.639Z,1.80
2023-05-13T11:08:49.558Z,1.80
2023-05-13T11:11:22.818Z,2.00
2023-05-13T11:13:53.299Z,1.60
2023-05-13T11:16:21.668Z,1.70
2023-05-13T11:18:49.422Z,1.80
2023-05-13T11:21:16.647Z,1.60
2023-05-13T11:24:05.734Z,1.85
2023-05-13T11:26:46.379Z,1.70
2023-05-13T11:29:14.237Z,1.85
2023-05-13T11:31:59.249Z,1.55
2023-05-13T11:34:27.770Z,1.60
2023-05-13T11:37:05.000Z,1.50
2023-05-13T11:39:33.240Z,1.50
2023-05-13T11:42:04.021Z,1.50
2023-05-13T11:44:31.472Z,1.40
2023-05-13T11:47:05.878Z,1.30
2023-05-13T11:49:44.697Z,1.50
2023-05-13T11:52:13.672Z,1.20
2023-05-13T11:54:47.302Z,1.25
2023-05-13T11:57:26.295Z,1.20
2023-05-13T12:00:13.773Z,1.20
2023-05-13T12:02:41.321Z,1.23
2023-05-13T12:05:10.260Z,1.30
2023-05-13T12:07:39.635Z,1.50
2023-05-13T12:10:07.784Z,1.30
2023-05-13T12:12:37.970Z,1.10
2023-05-13T12:15:26.641Z,1.40
2023-05-13T12:17:54.844Z,1.33
2023-05-13T12:20:25.419Z,1.20
2023-05-13T12:22:57.116Z,1.20
2023-05-13T12:25:46.863Z,1.20
2023-05-13T12:28:20.719Z,1.10
2023-05-13T12:30:56.147Z,1.23
2023-05-13T12:33:27.440Z,1.20
2023-05-13T12:36:15.152Z,1.40
2023-05-13T12:39:01.662Z,1.20
2023-05-13T12:41:31.270Z,1.30
2023-05-13T12:44:14.173Z,1.15
2023-05-13T12:47:11.804Z,1.30
2023-05-13T12:50:15.809Z,1.60
2023-05-13T12:52:42.921Z,1.45
2023-05-13T12:55:10.394Z,1.40
2023-05-13T12:57:37.396Z,1.50
2023-05-13T13:00:05.427Z,1.50
2023-05-13T13:02:32.616Z,1.30
2023-05-13T13:04:59.740Z,1.45
2023-05-13T13:07:27.336Z,1.60
2023-05-13T13:09:55.397Z,1.38
2023-05-13T13:12:22.580Z,1.40
2023-05-13T13:14:49.589Z,1.52
2023-05-13T13:17:16.685Z,1.50
2023-05-13T13:19:43.677Z,1.50
2023-05-13T13:22:10.793Z,1.70
2023-05-13T13:24:37.771Z,1.30
2023-05-13T13:27:05.082Z,1.40
2023-05-13T13:29:32.330Z,1.60
2023-05-13T13:31:59.564Z,1.40
2023-05-13T13:34:26.556Z,1.50
2023-05-13T13:36:53.873Z,1.50
2023-05-13T13:39:21.726Z,1.80
2023-05-13T13:41:48.790Z,1.70
2023-05-13T13:44:16.085Z,1.55
2023-05-13T13:46:43.238Z,1.67
2023-05-13T13:49:22.689Z,1.52
2023-05-13T13:51:51.434Z,1.95
2023-05-13T13:54:18.723Z,1.70
2023-05-13T13:56:46.038Z,1.80
2023-05-13T13:59:13.057Z,1.80
2023-05-13T14:01:40.443Z,1.80
2023-05-13T14:04:15.780Z,1.90
2023-05-13T14:06:43.256Z,2.00
2023-05-13T14:09:10.727Z,1.85
2023-05-13T14:11:37.868Z,2.10
2023-05-13T14:14:05.074Z,2.00
2023-05-13T14:16:32.201Z,1.85
2023-05-13T14:18:59.355Z,1.80
2023-05-13T14:21:26.486Z,1.90
2023-05-13T14:23:53.592Z,1.80
2023-05-13T14:26:21.252Z,2.20
2023-05-13T14:28:48.371Z,2.00
2023-05-13T14:31:15.912Z,2.00
2023-05-13T14:33:43.012Z,2.00
2023-05-13T14:36:11.340Z,1.83
2023-05-13T14:38:39.979Z,2.20
2023-05-13T14:41:06.960Z,1.90
2023-05-13T14:43:34.102Z,1.77
2023-05-13T14:46:01.665Z,1.97
2023-05-13T14:48:28.820Z,2.22
2023-05-13T14:50:56.399Z,1.90
2023-05-13T14:53:23.503Z,2.17
2023-05-13T14:55:51.511Z,2.07
2023-05-13T14:58:18.897Z,2.03
2023-05-13T15:00:45.979Z,2.20
2023-05-13T15:03:13.336Z,2.17
2023-05-13T15:05:43.862Z,2.20
2023-05-13T15:08:11.744Z,2.15
2023-05-13T15:10:38.895Z,2.30
2023-05-13T15:13:05.986Z,2.00
2023-05-13T15:15:33.684Z,2.22
2023-05-13T15:18:00.879Z,2.13
2023-05-13T15:20:28.662Z,2.30
2023-05-13T15:22:57.840Z,2.17
2023-05-13T15:25:24.952Z,2.00
2023-05-13T15:27:52.022Z,2.10
2023-05-13T15:30:19.441Z,2.10
2023-05-13T15:32:46.518Z,2.00
2023-05-13T15:35:15.706Z,2.35
2023-05-13T15:37:42.785Z,2.20
2023-05-13T15:40:10.750Z,2.00
2023-05-13T15:42:38.018Z,1.92
2023-05-13T15:45:05.626Z,2.20
2023-05-13T15:47:32.721Z,3.10
2023-05-13T15:49:59.987Z,2.40
2023-05-13T15:52:27.680Z,2.28
2023-05-13T15:54:54.663Z,2.13
2023-05-13T15:57:21.797Z,2.10
2023-05-13T15:59:48.767Z,2.10
2023-05-13T16:02:18.432Z,2.30
2023-05-13T16:04:45.658Z,2.07
2023-05-13T16:07:12.832Z,2.10
2023-05-13T16:09:40.294Z,2.40
2023-05-13T16:12:07.739Z,2.10
2023-05-13T16:14:34.942Z,1.75
2023-05-13T16:17:02.093Z,1.70
2023-05-13T16:19:29.081Z,2.00
2023-05-13T16:21:56.337Z,1.90
2023-05-13T16:24:23.559Z,2.10
2023-05-13T16:26:50.615Z,1.80
2023-05-13T16:29:17.916Z,1.90
2023-05-13T16:31:45.009Z,1.70
2023-05-13T16:34:12.115Z,1.90
2023-05-13T16:36:39.316Z,2.00
2023-05-13T16:39:06.899Z,1.90
2023-05-13T16:41:35.379Z,1.83
2023-05-13T16:44:02.490Z,2.00
2023-05-13T16:46:30.273Z,2.08
2023-05-13T16:48:59.918Z,2.10
2023-05-13T16:51:36.108Z,1.95
2023-05-13T16:54:03.315Z,2.00
2023-05-13T16:56:31.652Z,2.05
2023-05-13T16:58:59.141Z,1.98
2023-05-13T17:01:26.247Z,1.83
2023-05-13T17:03:53.347Z,2.35
2023-05-13T17:06:20.306Z,2.05
2023-05-13T17:08:47.412Z,3.97
2023-05-13T17:11:17.626Z,2.47
2023-05-13T17:13:44.855Z,2.60
2023-05-13T17:16:11.910Z,2.40
2023-05-13T17:18:39.115Z,2.30
2023-05-13T17:21:06.759Z,2.20
2023-05-13T17:23:33.919Z,2.00
2023-05-13T17:26:01.012Z,1.90
2023-05-13T17:28:28.080Z,2.10
2023-05-13T17:30:55.360Z,2.00
2023-05-13T17:33:22.503Z,2.00
2023-05-13T17:35:49.537Z,2.20
2023-05-13T17:38:16.545Z,2.10
2023-05-13T17:40:43.630Z,2.00
2023-05-13T17:43:10.748Z,2.28
2023-05-13T17:45:37.980Z,2.40
2023-05-13T17:48:05.576Z,2.20
2023-05-13T17:50:32.796Z,2.40
2023-05-13T17:53:00.603Z,2.30
2023-05-13T17:55:27.672Z,2.10
2023-05-13T17:57:55.795Z,2.50
2023-05-13T18:00:24.421Z,2.60
2023-05-13T18:02:51.817Z,2.50
2023-05-13T18:05:19.618Z,2.50
2023-05-13T18:07:46.915Z,2.50
2023-05-13T18:10:14.026Z,2.20
2023-05-13T18:12:41.082Z,2.30
2023-05-13T18:15:08.450Z,2.20
2023-05-13T18:17:35.722Z,2.45
2023-05-13T18:20:02.828Z,2.30
2023-05-13T18:22:30.062Z,2.40
2023-05-13T18:24:57.236Z,2.35
2023-05-13T18:27:25.519Z,2.30
2023-05-13T18:29:52.561Z,2.10
2023-05-13T18:32:21.587Z,2.13
2023-05-13T18:34:48.686Z,2.50
2023-05-13T18:37:15.876Z,2.30
2023-05-13T18:39:45.781Z,2.30
2023-05-13T18:42:13.081Z,2.30
2023-05-13T18:44:40.127Z,2.30
2023-05-13T18:47:07.543Z,2.30
2023-05-13T18:49:34.617Z,2.00
2023-05-13T18:52:01.827Z,2.35
2023-05-13T18:54:29.368Z,2.10
2023-05-13T18:56:56.579Z,2.40
2023-05-13T18:59:23.638Z,2.60
2023-05-13T19:01:50.854Z,2.50
2023-05-13T19:04:18.267Z,2.17
2023-05-13T19:06:45.768Z,2.28
2023-05-13T19:09:12.821Z,2.30
2023-05-13T19:11:39.985Z,2.80
2023-05-13T19:14:07.154Z,2.40
2023-05-13T19:16:34.392Z,2.40
2023-05-13T19:19:01.508Z,2.45
2023-05-13T19:21:28.573Z,2.60
2023-05-13T19:23:55.761Z,2.80
2023-05-13T19:26:22.777Z,2.20
2023-05-13T19:28:50.428Z,2.37
2023-05-13T19:31:18.113Z,2.40
2023-05-13T19:33:46.420Z,2.50
2023-05-13T19:36:13.897Z,2.30
2023-05-13T19:38:41.078Z,2.30
2023-05-13T19:41:08.358Z,2.40
2023-05-13T19:43:35.301Z,2.40
2023-05-13T19:46:02.451Z,2.50
2023-05-13T19:48:30.200Z,2.40
2023-05-13T19:50:58.467Z,2.30
2023-05-13T19:53:26.744Z,2.30
2023-05-13T19:55:56.907Z,2.50
2023-05-13T19:58:24.152Z,2.30
2023-05-13T20:00:51.227Z,2.50
2023-05-13T20:03:18.437Z,2.23
2023-05-13T20:05:48.274Z,2.38
2023-05-13T20:08:15.484Z,2.60
2023-05-13T20:10:42.649Z,2.53
2023-05-13T20:13:09.859Z,2.60
2023-05-13T20:15:36.950Z,2.33
2023-05-13T20:18:04.166Z,2.50
2023-05-13T20:20:31.208Z,2.63
2023-05-13T20:22:58.323Z,2.42
2023-05-13T20:25:25.573Z,2.60
2023-05-13T20:27:52.709Z,2.70
2023-05-13T20:30:20.964Z,3.15
2023-05-13T20:32:48.371Z,2.50
2023-05-13T20:35:15.495Z,2.70
2023-05-13T20:37:42.647Z,3.20
2023-05-13T20:40:10.167Z,2.90
2023-05-13T20:42:37.506Z,2.95
2023-05-13T20:45:05.240Z,3.10
2023-05-13T20:47:32.319Z,2.73
2023-05-13T20:49:59.579Z,2.70
2023-05-13T20:52:26.720Z,2.78
2023-05-13T20:54:53.873Z,2.90
2023-05-13T20:57:21.006Z,2.58
2023-05-13T20:59:48.056Z,2.92
2023-05-13T21:02:15.068Z,2.75
2023-05-13T21:04:42.059Z,2.88
2023-05-13T21:07:09.144Z,2.63
2023-05-13T21:09:36.234Z,3.00
2023-05-13T21:12:03.597Z,2.90
2023-05-13T21:14:30.724Z,2.80
2023-05-13T21:16:57.821Z,2.40
2023-05-13T21:19:25.621Z,2.67
2023-05-13T21:21:52.642Z,2.60
2023-05-13T21:24:20.292Z,2.83
2023-05-13T21:26:49.145Z,2.20
2023-05-13T21:29:18.504Z,2.90
2023-05-13T21:31:46.727Z,2.58
2023-05-13T21:34:13.908Z,2.58
2023-05-13T21:36:41.069Z,2.40
2023-05-13T21:39:10.362Z,2.47
2023-05-13T21:41:37.758Z,2.42
2023-05-13T21:44:04.979Z,2.15
2023-05-13T21:46:32.163Z,2.50
2023-05-13T21:49:00.584Z,2.30
2023-05-13T21:51:28.074Z,2.70
2023-05-13T21:53:55.244Z,2.28
2023-05-13T21:56:22.307Z,2.10
2023-05-13T21:58:49.952Z,2.10
2023-05-13T22:01:17.094Z,2.30
2023-05-13T22:03:44.192Z,2.33
2023-05-13T22:06:11.337Z,2.70
2023-05-13T22:08:38.438Z,2.70
2023-05-13T22:11:06.917Z,2.60
2023-05-13T22:13:34.079Z,2.80
2023-05-13T22:16:01.262Z,2.90
2023-05-13T22:18:28.844Z,2.83
2023-05-13T22:20:56.225Z,3.25
2023-05-13T22:23:23.355Z,3.80
2023-05-13T22:25:50.750Z,3.10
2023-05-13T22:28:18.054Z,3.40
2023-05-13T22:30:45.043Z,2.90
2023-05-13T22:33:12.265Z,2.92
2023-05-13T22:35:39.616Z,3.10
2023-05-13T22:38:06.717Z,2.90
2023-05-13T22:40:33.820Z,2.50
2023-05-13T22:43:00.915Z,2.80
2023-05-13T22:45:28.130Z,2.90
2023-05-13T22:47:56.030Z,2.60
2023-05-13T22:50:24.753Z,2.75
2023-05-13T22:52:52.032Z,2.90
2023-05-13T22:55:19.235Z,2.83
2023-05-13T22:57:46.409Z,3.03
2023-05-13T23:00:14.175Z,3.00
2023-05-13T23:02:43.757Z,2.70
2023-05-13T23:05:11.084Z,3.20
2023-05-13T23:07:38.094Z,3.22
2023-05-13T23:10:05.852Z,3.30
2023-05-13T23:12:33.459Z,3.10
2023-05-13T23:15:00.601Z,3.13
2023-05-13T23:17:27.652Z,3.17
2023-05-13T23:19:54.855Z,3.10
2023-05-13T23:22:21.821Z,2.92
2023-05-13T23:24:49.119Z,3.00
2023-05-13T23:27:16.098Z,2.90
2023-05-13T23:29:43.188Z,2.93
2023-05-13T23:32:10.445Z,2.90
2023-05-13T23:34:37.533Z,3.03
2023-05-13T23:37:05.071Z,3.20
2023-05-13T23:39:32.132Z,2.83
2023-05-13T23:41:59.172Z,2.90
2023-05-13T23:44:26.214Z,2.70
2023-05-13T23:46:53.248Z,3.40
2023-05-13T23:49:20.381Z,2.80
2023-05-13T23:51:47.423Z,2.95
2023-05-13T23:54:14.536Z,2.92
2023-05-13T23:56:41.651Z,3.20
2023-05-13T23:59:08.819Z,2.55
